Skip Navigation Links
NOAA logo - Click to go to the NOAA homepage
NOAA's National Weather Service
Alaska Aviation Weather Unit
  NWS logo - Click to go to the NWS homepage
Left Navbar Graphic     12 AKDT = 20 GMT

   
NOAA is celebrating 200 years of science, service, and stewardship. Visit the NOAA 200th celebration Web site to learn more.
USA.gov is the U.S. Government's official Web portal to all Federal, state and local government Web resources and services.
Facebook
NWS on Facebook

Important Change Regarding the AAWU Web Presence

 

Over the last several months, the AAWU has been working to navigate its webpages to a nationally supported server. Security, as well as other needs, have necessitated the change.  We have been given an extension for the site changeover while we diligently work at addressing feedback received. As of July 14, 2017, aawu.arh.noaa.gov will be discontinued. The new AAWU web address is weather.gov/aawu. It is now live and will run in-parallel with the old site until it is discontinued on July 14, 2017. Please continue to send any feedback or questions regarding the new webpages to nws.ar.aawu.webauthors@noaa.gov.  Thank you for your patience during this time of transition.
AAWU Home :: Display TAF Add Bookmark
SPECI PASM 251403Z AUTO 18004KT 3/4SM BR OVC005 12/12 A2994 RMK AO2 CIG
     004V009=

SPECI PASM 251443Z AUTO 00000KT 3/4SM BR OVC003 12/12 A2994 RMK AO2=

METAR PASM 251456Z AUTO 00000KT 1SM -RA BR OVC003 12/12 A2994 RMK
 AO2 RAB53 SLP155 P0000 60000 T01220117 53002=

SPECI PASM 251505Z AUTO 00000KT 1 1/4SM -RA BR OVC003 12/12 A2994 RMK
     AO2 P0000=

SPECI PASM 251535Z AUTO 00000KT 1SM -RA BR OVC003 12/12 A2994 RMK AO2
     P0001=

SPECI PASM 251542Z AUTO 00000KT 2 1/2SM BR OVC003 12/12 A2994 RMK AO2
     RAE41 P0001=

SPECI PASM 251549Z AUTO 00000KT 4SM BR OVC003 12/12 A2994 RMK AO2 RAE41
     P0001=

METAR PASM 251556Z AUTO 00000KT 6SM BR OVC003 12/12 A2993 RMK AO2
 RAE41 SLP153 P0001 T01220122=

METAR PASM 251656Z AUTO 00000KT 7SM BKN003 OVC023 12/12 A2993 RMK AO2
     CIG 002V006 SLP152 T01220122=

SPECI PASM 251720Z AUTO 32003KT 1 3/4SM -RA BR BKN003 OVC011 13/12 A2993
     RMK AO2 RAB16 P0000=

SPECI PASM 251729Z AUTO 33003KT 2SM -RA BR SCT003 OVC011 13/12 A2993 RMK
     AO2 VIS 1 1/2V4 RAB16 P0000=

SPECI PASM 251735Z AUTO 32003KT 2SM -RA BR BKN005 OVC011 13/12 A2993 RMK
     AO2 RAB16 CIG 002V007 P0000=

SPECI PASM 251739Z AUTO 31003KT 1 3/4SM -RA BR SCT005 OVC009 13/12 A2993
     RMK AO2 RAB16 CIG 007V011 P0001=

SPECI PASM 251747Z AUTO 33003KT 1 3/4SM -RA BR BKN005 BKN009 OVC012
     13/12 A2993 RMK AO2 RAB16 P0001=

METAR PASM 251756Z AUTO 31003KT 1 3/4SM -RA BR BKN005 OVC009 13/12 A2993
     RMK AO2 RAB16 CIG 002V008 SLP152 P0001 60002 T01280122 10128
     20117 56003=

SPECI PASM 251810Z AUTO 31004KT 3SM -RA BR BKN005 OVC010 13/12 A2993 RMK
     AO2 CIG 002V007 P0001=

SPECI PASM 251844Z AUTO 34005KT 9SM BKN007 BKN011 OVC020 13/12 A2993 RMK
     AO2 RAE18 CIG 004V009 P0001=

METAR PASM 251856Z AUTO 36006KT 10SM BKN007 BKN013 OVC030 13/12 A2993
     RMK AO2 RAE18 CIG 004V011 SLP151 P0001 T01330122=

SPECI PASM 251911Z AUTO 01006KT 10SM SCT009 OVC038 14/12 A2993 RMK
     AO2=

SPECI PASM 251930Z AUTO 01004KT 10SM BKN011 BKN017 OVC038 14/12 A2993
     RMK AO2=

METAR PASM 251956Z AUTO 35006KT 10SM BKN011 BKN017 OVC024 14/12 A2993
     RMK AO2 SLP151 T01440122=

SPECI PASM 252013Z AUTO 36005KT 7SM -RA FEW011 BKN025 OVC030 14/12 A2993
     RMK AO2 RAB05 P0000=

SPECI PASM 252035Z AUTO VRB03KT 10SM -RA SCT023 OVC037 14/13 A2993 RMK
     AO2 RAB05 P0000=


NOAA's National Weather Service
Alaska Aviation Weather Unit
6930 Sand Lake Road
Anchorage, AK 99502-1845
Disclaimer
Credits
Glossary
Privacy Policy
About Us
Career Opportunities
Contact AAWU Internet Services Site last modified: April, 17th 2012